Time;durP1;ratioP1;P1;durP2;ratioP2;P2;SDS_P1;SDS_P2;PMS_P1;PMS_P2;Temp;Humidity;BMP_temperature;BMP_pressure;BME280_temperature;BME280_humidity;BME280_pressure;Samples;Min_cycle;Max_cycle;Signal;HPM_P1;HPM_P2
2022/07/29 00:01:43;;;;;;;6.10;2.10;;;18.20;99.90;;;;;;5054734;28;20108;-57
2022/07/29 00:04:09;;;;;;;3.75;2.00;;;18.20;99.90;;;;;;5054698;28;20033;-56
2022/07/29 00:06:34;;;;;;;2.42;1.65;;;18.20;99.90;;;;;;5055145;28;20109;-57
2022/07/29 00:09:00;;;;;;;4.82;2.20;;;18.10;99.90;;;;;;5054609;28;20051;-57
2022/07/29 00:11:26;;;;;;;4.03;1.88;;;18.00;99.90;;;;;;5054352;28;20039;-57
2022/07/29 00:13:51;;;;;;;3.55;1.80;;;18.00;99.90;;;;;;5054606;28;20525;-57
2022/07/29 00:16:17;;;;;;;3.00;2.15;;;18.00;99.90;;;;;;5054834;28;20465;-57
2022/07/29 00:18:43;;;;;;;2.90;1.90;;;18.00;99.90;;;;;;5054658;28;20025;-57
2022/07/29 00:21:09;;;;;;;2.55;1.83;;;18.00;99.90;;;;;;5054408;28;20084;-57
2022/07/29 00:23:35;;;;;;;2.42;1.80;;;18.00;99.90;;;;;;5054296;28;20021;-57
2022/07/29 00:26:00;;;;;;;2.88;1.60;;;18.00;99.90;;;;;;5052747;28;20389;-57
2022/07/29 00:28:26;;;;;;;2.72;1.67;;;18.00;99.90;;;;;;5054349;28;20025;-57
2022/07/29 00:30:52;;;;;;;2.65;1.73;;;18.00;99.90;;;;;;5054640;28;20125;-57
2022/07/29 00:33:18;;;;;;;3.47;2.30;;;18.00;99.90;;;;;;5054517;28;20082;-57
2022/07/29 00:35:43;;;;;;;3.03;1.70;;;18.00;99.90;;;;;;5054344;28;20029;-57
2022/07/29 00:38:13;;;;;;;2.67;1.80;;;18.00;99.90;;;;;;5053914;28;20118;-57
2022/07/29 00:40:39;;;;;;;4.00;2.25;;;18.00;99.90;;;;;;5053755;28;20381;-57
2022/07/29 00:43:05;;;;;;;4.90;2.47;;;18.00;99.90;;;;;;5053952;28;20045;-57
2022/07/29 00:45:31;;;;;;;2.70;1.90;;;17.90;99.90;;;;;;5053508;28;20036;-57
2022/07/29 00:47:57;;;;;;;4.38;2.30;;;17.90;99.90;;;;;;5054162;28;20028;-57
2022/07/29 00:50:23;;;;;;;4.35;2.20;;;17.80;99.90;;;;;;5053910;28;20037;-57
2022/07/29 00:52:50;;;;;;;5.45;2.30;;;17.90;99.90;;;;;;5053871;28;20028;-57
2022/07/29 00:55:17;;;;;;;2.88;2.08;;;17.90;99.90;;;;;;5053905;28;20067;-57
2022/07/29 00:57:44;;;;;;;8.02;2.40;;;17.70;99.90;;;;;;5053483;28;20043;-57
2022/07/29 01:00:14;;;;;;;4.13;2.03;;;17.60;99.90;;;;;;5053790;28;20036;-57
2022/07/29 01:02:40;;;;;;;2.35;2.00;;;17.60;99.90;;;;;;5054099;28;20025;-56
2022/07/29 01:05:07;;;;;;;2.90;2.10;;;17.60;99.90;;;;;;5053664;28;20047;-57
2022/07/29 01:07:34;;;;;;;2.80;2.05;;;17.60;99.90;;;;;;5053549;28;20101;-58
2022/07/29 01:10:03;;;;;;;4.97;2.10;;;17.50;99.90;;;;;;5053336;28;20452;-57
2022/07/29 01:12:33;;;;;;;4.30;2.30;;;17.50;99.90;;;;;;5053525;28;20491;-57
2022/07/29 01:15:03;;;;;;;4.22;2.30;;;17.50;99.90;;;;;;5053454;28;20025;-57
2022/07/29 01:17:46;;;;;;;3.78;2.22;;;17.60;99.90;;;;;;5053487;28;20057;-56
2022/07/29 01:20:26;;;;;;;4.97;2.17;;;17.60;99.90;;;;;;5053216;28;20477;-57
2022/07/29 01:23:30;;;;;;;3.90;2.28;;;17.60;99.90;;;;;;5053400;28;20096;-57
2022/07/29 01:26:20;;;;;;;3.33;2.28;;;17.60;99.90;;;;;;5053013;28;20420;-58
2022/07/29 01:29:04;;;;;;;4.45;2.47;;;17.50;99.90;;;;;;5053295;28;20436;-57
2022/07/29 01:32:15;;;;;;;4.93;2.22;;;17.50;99.90;;;;;;5053100;28;20041;-57
2022/07/29 01:34:52;;;;;;;4.75;2.72;;;17.40;99.90;;;;;;5030905;28;20025;-57
2022/07/29 01:37:29;;;;;;;5.20;2.35;;;17.40;99.90;;;;;;5030715;28;20443;-57
2022/07/29 01:39:58;;;;;;;4.25;2.58;;;17.50;99.90;;;;;;5030584;28;20059;-57
2022/07/29 01:42:46;;;;;;;5.53;2.95;;;17.50;99.90;;;;;;5030859;28;20543;-57
2022/07/29 01:45:23;;;;;;;6.18;3.28;;;17.50;99.90;;;;;;5030794;28;20046;-57
2022/07/29 01:48:18;;;;;;;8.50;3.58;;;17.50;99.90;;;;;;5030854;28;20126;-57
2022/07/29 01:50:50;;;;;;;5.65;3.45;;;17.40;99.90;;;;;;5030552;28;20156;-57
2022/07/29 01:53:25;;;;;;;5.53;3.42;;;17.50;99.90;;;;;;5030479;28;20018;-57
2022/07/29 01:55:53;;;;;;;5.25;3.08;;;17.50;99.90;;;;;;5030568;28;20030;-57
2022/07/29 01:58:20;;;;;;;6.97;3.80;;;17.50;99.90;;;;;;5030599;28;20071;-57
2022/07/29 02:00:48;;;;;;;5.07;3.08;;;17.60;99.90;;;;;;5030491;28;20034;-57
2022/07/29 02:03:16;;;;;;;5.35;3.60;;;17.50;99.90;;;;;;5030867;28;20139;-57
2022/07/29 02:05:46;;;;;;;5.22;3.50;;;17.50;99.90;;;;;;5030187;28;20034;-57
2022/07/29 02:08:13;;;;;;;4.97;3.35;;;17.50;99.90;;;;;;5030134;28;20454;-57
2022/07/29 02:10:41;;;;;;;4.50;3.17;;;17.40;99.90;;;;;;5032206;28;20037;-57
2022/07/29 02:13:09;;;;;;;5.30;3.35;;;17.40;99.90;;;;;;5032459;28;20026;-57
2022/07/29 02:15:36;;;;;;;8.65;3.88;;;17.40;99.90;;;;;;5032469;28;20026;-57
2022/07/29 02:18:07;;;;;;;5.68;3.85;;;17.10;99.90;;;;;;5032401;28;20022;-57
2022/07/29 02:20:33;;;;;;;5.82;3.58;;;17.10;99.90;;;;;;5032361;28;20026;-57
2022/07/29 02:23:01;;;;;;;5.90;3.92;;;17.00;99.90;;;;;;5031999;28;20032;-57
2022/07/29 02:25:28;;;;;;;4.85;3.70;;;17.10;99.90;;;;;;5032491;28;20068;-57
2022/07/29 02:27:55;;;;;;;5.60;3.80;;;17.10;99.90;;;;;;5032280;28;20025;-57
2022/07/29 02:30:23;;;;;;;6.93;3.92;;;17.00;99.90;;;;;;5032308;28;20040;-57
2022/07/29 02:32:50;;;;;;;6.88;4.18;;;17.00;99.90;;;;;;5032014;28;20469;-56
2022/07/29 02:35:18;;;;;;;7.38;3.80;;;17.00;99.90;;;;;;5032159;28;20437;-58
2022/07/29 02:38:49;;;;;;;5.35;4.70;;;16.90;99.90;;;;;;5035519;28;20021;-57
2022/07/29 02:40:32;;;;;;;6.78;4.50;;;16.80;99.90;;;;;;5051939;28;20028;-57
2022/07/29 02:42:58;;;;;;;8.23;4.25;;;16.80;99.90;;;;;;5052164;28;20045;-57
2022/07/29 02:45:24;;;;;;;6.28;4.13;;;16.80;99.90;;;;;;5051818;28;20086;-58
2022/07/29 02:47:51;;;;;;;6.57;4.70;;;16.70;99.90;;;;;;5051769;28;20029;-56
2022/07/29 02:50:36;;;;;;;5.05;3.75;;;16.70;99.90;;;;;;5051763;28;20104;-57
2022/07/29 02:53:07;;;;;;;6.25;3.92;;;16.70;99.90;;;;;;5051477;28;20048;-57
2022/07/29 02:55:59;;;;;;;6.90;4.07;;;16.60;99.90;;;;;;5052005;28;20021;-57
2022/07/29 02:58:29;;;;;;;5.53;3.85;;;16.70;99.90;;;;;;5051949;28;20485;-56
2022/07/29 03:00:58;;;;;;;7.10;4.20;;;16.70;99.90;;;;;;5051943;28;20033;-57
2022/07/29 03:03:28;;;;;;;5.63;4.18;;;16.70;99.90;;;;;;5051514;28;20025;-57
2022/07/29 03:05:56;;;;;;;7.85;4.57;;;16.70;99.90;;;;;;5049907;28;20040;-57
2022/07/29 03:08:24;;;;;;;5.88;4.53;;;16.70;99.90;;;;;;5051473;28;20109;-55
2022/07/29 03:10:51;;;;;;;5.57;4.32;;;16.80;99.90;;;;;;5051466;28;20062;-57
2022/07/29 03:13:18;;;;;;;8.65;4.80;;;16.80;99.90;;;;;;5051586;28;20021;-57
2022/07/29 03:15:45;;;;;;;6.22;4.40;;;16.80;99.90;;;;;;5051488;28;20549;-57
2022/07/29 03:18:11;;;;;;;8.13;5.50;;;16.80;99.90;;;;;;5051552;28;20092;-57
2022/07/29 03:20:38;;;;;;;8.32;5.40;;;16.80;99.90;;;;;;5051168;28;20033;-56
2022/07/29 03:23:04;;;;;;;6.50;5.00;;;16.80;99.90;;;;;;5051893;28;20041;-57
2022/07/29 03:25:30;;;;;;;7.85;5.10;;;16.80;99.90;;;;;;5051289;28;20041;-57
2022/07/29 03:27:56;;;;;;;8.18;4.38;;;16.80;99.90;;;;;;5051354;28;20022;-58
2022/07/29 03:30:23;;;;;;;7.07;4.72;;;16.80;99.90;;;;;;5051390;28;20474;-57
2022/07/29 03:32:50;;;;;;;7.75;4.90;;;16.80;99.90;;;;;;5051685;28;20032;-57
2022/07/29 03:35:19;;;;;;;7.57;4.70;;;16.80;99.90;;;;;;5051134;28;20020;-57
2022/07/29 03:37:45;;;;;;;6.80;4.50;;;16.80;99.90;;;;;;5050911;28;20040;-56
2022/07/29 03:40:34;;;;;;;7.47;4.95;;;16.80;99.90;;;;;;5051638;28;20044;-57
2022/07/29 03:43:02;;;;;;;6.57;4.38;;;16.80;99.90;;;;;;5051080;28;20055;-56
2022/07/29 03:45:30;;;;;;;6.90;5.10;;;16.80;99.90;;;;;;5051219;28;20067;-57
2022/07/29 03:48:00;;;;;;;5.20;4.40;;;16.80;99.90;;;;;;5051396;28;20481;-57
2022/07/29 03:50:26;;;;;;;8.93;5.10;;;16.80;99.90;;;;;;5050763;28;20025;-57
2022/07/29 03:52:52;;;;;;;9.50;5.10;;;16.70;99.90;;;;;;5051376;28;20088;-57
2022/07/29 03:55:18;;;;;;;8.38;5.30;;;16.70;99.90;;;;;;5051212;28;20041;-56
2022/07/29 03:57:46;;;;;;;9.68;4.95;;;16.60;99.90;;;;;;5051342;28;20098;-58
2022/07/29 04:00:13;;;;;;;6.47;5.40;;;16.60;99.90;;;;;;5050980;28;20029;-57
2022/07/29 04:02:39;;;;;;;7.20;5.45;;;16.50;99.90;;;;;;5051730;28;20068;-58
2022/07/29 04:05:11;;;;;;;8.45;5.68;;;16.40;99.90;;;;;;5050854;28;20099;-58
2022/07/29 04:07:36;;;;;;;7.75;5.25;;;16.30;99.90;;;;;;5049846;28;20082;-57
2022/07/29 04:10:02;;;;;;;7.60;5.22;;;16.30;99.90;;;;;;5051152;28;20040;-55
2022/07/29 04:12:28;;;;;;;8.40;5.00;;;16.40;99.90;;;;;;5051388;28;20092;-55
2022/07/29 04:14:54;;;;;;;8.48;4.88;;;16.40;99.90;;;;;;5050707;28;20508;-55
2022/07/29 04:17:19;;;;;;;8.30;5.13;;;16.40;99.90;;;;;;5049721;28;20033;-57
2022/07/29 04:19:45;;;;;;;5.95;4.90;;;16.40;99.90;;;;;;5052149;28;20029;-57
2022/07/29 04:22:11;;;;;;;8.05;4.80;;;16.40;99.90;;;;;;5054665;28;20017;-57
2022/07/29 04:24:36;;;;;;;6.47;4.95;;;16.30;99.90;;;;;;5054521;28;20045;-55
2022/07/29 04:27:02;;;;;;;8.13;5.10;;;16.30;99.90;;;;;;5054389;28;20047;-57
2022/07/29 04:29:28;;;;;;;6.45;4.50;;;16.40;99.90;;;;;;5054395;28;20563;-54
2022/07/29 04:31:53;;;;;;;6.45;4.60;;;16.40;99.90;;;;;;5054411;28;20032;-54
2022/07/29 04:34:19;;;;;;;7.38;4.35;;;16.40;99.90;;;;;;5053985;28;20128;-55
2022/07/29 04:36:45;;;;;;;8.40;4.55;;;16.40;99.90;;;;;;5054742;28;20029;-55
2022/07/29 04:39:11;;;;;;;6.03;4.18;;;16.30;99.90;;;;;;5054049;28;20119;-55
2022/07/29 04:41:37;;;;;;;9.35;4.72;;;16.40;99.90;;;;;;5053812;28;20445;-55
2022/07/29 04:44:04;;;;;;;7.25;4.57;;;16.40;99.90;;;;;;5054205;28;20444;-55
2022/07/29 04:46:30;;;;;;;7.93;4.90;;;16.40;99.90;;;;;;5054135;28;20096;-56
2022/07/29 04:48:56;;;;;;;6.90;4.60;;;16.30;99.90;;;;;;5053786;28;20045;-56
2022/07/29 04:51:22;;;;;;;9.30;5.05;;;16.20;99.90;;;;;;5053826;28;20072;-56
2022/07/29 04:53:47;;;;;;;9.15;4.80;;;16.20;99.90;;;;;;5054436;28;20025;-56
2022/07/29 04:56:13;;;;;;;7.43;4.80;;;16.00;99.90;;;;;;5054137;28;20469;-55
2022/07/29 04:58:39;;;;;;;9.00;5.00;;;16.00;99.90;;;;;;5053714;28;20393;-56
2022/07/29 05:01:05;;;;;;;5.65;4.07;;;16.10;99.90;;;;;;5054137;28;20100;-56
2022/07/29 05:03:30;;;;;;;8.27;4.28;;;16.10;99.90;;;;;;5052273;28;20024;-55
2022/07/29 05:05:56;;;;;;;4.63;4.10;;;16.20;99.90;;;;;;5053736;28;20037;-55
2022/07/29 05:08:22;;;;;;;9.57;4.57;;;16.20;99.90;;;;;;5053862;28;20077;-55
2022/07/29 05:10:47;;;;;;;7.28;4.90;;;16.10;99.90;;;;;;5053605;28;20025;-56
2022/07/29 05:13:13;;;;;;;10.60;4.82;;;16.10;99.90;;;;;;5053995;28;20108;-56
2022/07/29 05:15:39;;;;;;;7.45;4.30;;;16.10;99.90;;;;;;5053506;28;20090;-54
2022/07/29 05:18:04;;;;;;;8.15;4.47;;;16.20;99.90;;;;;;5053383;28;20511;-56
2022/07/29 05:20:30;;;;;;;8.10;4.45;;;16.20;99.90;;;;;;5053477;28;20029;-56
2022/07/29 05:22:58;;;;;;;8.88;4.60;;;16.30;99.90;;;;;;5053551;28;20029;-56
2022/07/29 05:25:25;;;;;;;8.15;4.57;;;16.30;99.90;;;;;;5053279;28;20035;-55
2022/07/29 05:27:51;;;;;;;11.38;4.28;;;16.30;99.90;;;;;;5053553;28;20083;-56
2022/07/29 05:30:16;;;;;;;8.80;4.50;;;16.30;99.90;;;;;;5052435;28;20049;-55
2022/07/29 05:32:42;;;;;;;9.90;4.25;;;16.30;99.90;;;;;;5053189;28;20031;-56
2022/07/29 05:35:08;;;;;;;9.40;4.65;;;16.30;99.90;;;;;;5053299;28;20053;-56
2022/07/29 05:37:34;;;;;;;7.97;4.63;;;16.30;99.90;;;;;;5052857;28;20041;-56
2022/07/29 05:39:59;;;;;;;9.52;4.57;;;16.30;99.90;;;;;;5053366;28;20029;-56
2022/07/29 05:42:26;;;;;;;8.93;5.00;;;16.40;99.90;;;;;;5052931;28;20055;-56
2022/07/29 05:44:52;;;;;;;9.68;5.03;;;16.30;99.90;;;;;;5052662;28;20063;-55
2022/07/29 05:47:18;;;;;;;7.30;5.60;;;16.30;99.90;;;;;;5053036;28;20025;-54
2022/07/29 05:49:44;;;;;;;8.05;5.45;;;16.30;99.90;;;;;;5052906;28;20478;-55
2022/07/29 05:52:09;;;;;;;10.57;5.88;;;16.40;99.90;;;;;;5052912;28;20032;-56
2022/07/29 05:54:36;;;;;;;9.27;5.68;;;16.30;99.90;;;;;;5052894;28;20378;-55
2022/07/29 05:57:02;;;;;;;6.22;5.30;;;16.40;99.90;;;;;;5053112;28;20493;-56
2022/07/29 05:59:28;;;;;;;7.65;5.28;;;16.50;99.90;;;;;;5052260;28;20037;-56
2022/07/29 06:01:54;;;;;;;9.77;5.88;;;16.50;99.90;;;;;;5052708;28;20381;-56
2022/07/29 06:04:20;;;;;;;12.80;6.28;;;16.60;99.90;;;;;;5052637;28;20037;-56
2022/07/29 06:06:46;;;;;;;11.23;6.13;;;16.70;99.90;;;;;;5052545;28;20467;-56
2022/07/29 06:09:12;;;;;;;7.80;6.50;;;16.80;99.90;;;;;;5052859;28;20115;-57
2022/07/29 06:11:37;;;;;;;8.80;6.40;;;16.90;99.90;;;;;;5052355;28;20037;-55
2022/07/29 06:14:03;;;;;;;9.98;6.60;;;17.00;99.90;;;;;;5052153;28;20021;-56
2022/07/29 06:16:29;;;;;;;11.18;6.43;;;17.20;99.90;;;;;;5052474;28;20091;-56
2022/07/29 06:18:54;;;;;;;9.23;6.40;;;17.40;99.90;;;;;;5052435;28;20029;-57
2022/07/29 06:21:20;;;;;;;9.02;6.05;;;17.60;99.90;;;;;;5052676;28;20078;-56
2022/07/29 06:23:46;;;;;;;7.82;5.88;;;17.70;99.90;;;;;;5052246;28;20103;-54
2022/07/29 06:26:12;;;;;;;8.77;5.55;;;17.80;99.90;;;;;;5052166;28;20035;-57
2022/07/29 06:28:38;;;;;;;8.63;5.70;;;17.80;99.90;;;;;;5051850;28;20033;-55
2022/07/29 06:31:05;;;;;;;7.60;5.45;;;17.90;99.90;;;;;;5052311;28;20104;-55
2022/07/29 06:33:31;;;;;;;8.85;6.18;;;17.80;99.90;;;;;;5052548;28;20025;-56
2022/07/29 06:35:57;;;;;;;7.18;5.22;;;17.80;99.90;;;;;;5052093;28;20031;-57
2022/07/29 06:38:22;;;;;;;12.75;5.95;;;17.80;99.90;;;;;;5050735;28;20112;-56
2022/07/29 06:41:01;;;;;;;9.35;5.90;;;17.90;99.90;;;;;;5052243;28;20449;-56
2022/07/29 06:43:28;;;;;;;9.68;6.07;;;17.80;99.90;;;;;;5050637;28;20102;-56
2022/07/29 06:45:54;;;;;;;8.63;6.03;;;17.90;99.90;;;;;;5051901;28;20449;-56
2022/07/29 06:48:20;;;;;;;7.45;5.72;;;18.20;99.90;;;;;;5051967;28;20032;-55
2022/07/29 06:50:45;;;;;;;7.55;5.50;;;18.40;99.90;;;;;;5051963;28;20112;-56
2022/07/29 06:53:11;;;;;;;8.88;5.28;;;18.40;99.90;;;;;;5052192;28;20039;-56
2022/07/29 06:55:37;;;;;;;9.40;5.13;;;18.30;99.90;;;;;;5050557;28;20036;-57
2022/07/29 06:58:03;;;;;;;7.25;4.90;;;18.50;99.90;;;;;;5051484;28;20029;-56
2022/07/29 07:00:28;;;;;;;6.15;4.57;;;19.30;99.90;;;;;;5051750;28;20048;-56
2022/07/29 07:02:54;;;;;;;6.78;4.80;;;19.10;99.90;;;;;;5052137;28;20059;-57
2022/07/29 07:05:20;;;;;;;7.00;4.55;;;18.90;99.90;;;;;;5050475;28;20089;-55
2022/07/29 07:07:45;;;;;;;5.40;4.60;;;18.90;99.90;;;;;;5051608;28;20507;-56
2022/07/29 07:10:11;;;;;;;7.63;4.68;;;19.00;99.90;;;;;;5051914;28;20485;-56
2022/07/29 07:12:37;;;;;;;9.48;4.82;;;19.00;99.90;;;;;;5051357;28;20121;-56
2022/07/29 07:15:03;;;;;;;6.68;4.40;;;19.10;99.90;;;;;;5051580;28;20044;-56
2022/07/29 07:17:28;;;;;;;6.85;4.78;;;19.20;99.90;;;;;;5051768;28;20037;-56
2022/07/29 07:19:54;;;;;;;6.25;4.20;;;19.10;99.90;;;;;;5052019;28;20390;-56
2022/07/29 07:22:20;;;;;;;5.70;4.32;;;19.30;99.90;;;;;;5051311;28;20071;-55
2022/07/29 07:24:45;;;;;;;6.05;4.03;;;19.50;99.90;;;;;;5051240;28;20029;-55
2022/07/29 07:27:11;;;;;;;4.95;3.85;;;19.50;99.90;;;;;;5051581;28;20025;-56
2022/07/29 07:29:40;;;;;;;5.65;3.90;;;19.50;99.90;;;;;;5051394;28;20555;-55
2022/07/29 07:32:07;;;;;;;5.30;3.70;;;19.70;99.90;;;;;;5051615;28;20493;-56
2022/07/29 07:34:32;;;;;;;5.28;3.90;;;19.80;99.90;;;;;;5051488;28;20041;-57
2022/07/29 07:36:59;;;;;;;6.07;3.95;;;20.20;99.90;;;;;;5051231;28;20024;-55
2022/07/29 07:39:25;;;;;;;3.65;3.28;;;21.50;99.90;;;;;;5051209;28;20127;-57
2022/07/29 07:41:51;;;;;;;6.35;3.60;;;21.60;99.90;;;;;;5051271;28;20029;-56
2022/07/29 07:44:17;;;;;;;7.25;3.78;;;22.00;99.90;;;;;;5051310;28;20045;-55
2022/07/29 07:46:44;;;;;;;6.70;3.63;;;21.90;99.90;;;;;;5051430;28;20078;-57
2022/07/29 07:49:10;;;;;;;5.18;3.33;;;21.60;99.90;;;;;;5051185;28;20025;-56
2022/07/29 07:51:36;;;;;;;5.80;3.78;;;21.40;99.90;;;;;;5051156;28;20164;-57
2022/07/29 07:54:02;;;;;;;6.82;4.03;;;21.40;99.90;;;;;;5053146;28;20104;-56
2022/07/29 07:56:28;;;;;;;4.65;3.55;;;21.50;99.90;;;;;;5055139;28;20013;-56
2022/07/29 07:58:53;;;;;;;7.35;3.80;;;21.50;99.90;;;;;;5055083;28;20048;-57
2022/07/29 08:01:22;;;;;;;6.20;3.65;;;21.90;99.90;;;;;;5055330;28;20029;-56
2022/07/29 08:03:49;;;;;;;6.88;4.15;;;22.90;99.90;;;;;;5054799;28;20436;-57
2022/07/29 08:06:14;;;;;;;6.63;3.92;;;23.00;99.90;;;;;;5054838;28;20086;-56
2022/07/29 08:08:40;;;;;;;6.72;3.85;;;22.90;99.90;;;;;;5053725;28;20029;-56
2022/07/29 08:11:06;;;;;;;6.18;3.75;;;23.70;99.90;;;;;;5054381;28;20039;-57
2022/07/29 08:13:32;;;;;;;8.95;3.63;;;23.30;99.90;;;;;;5054734;28;20060;-56
2022/07/29 08:15:59;;;;;;;5.32;3.70;;;23.30;99.90;;;;;;5054723;28;20040;-56
2022/07/29 08:18:30;;;;;;;5.95;3.60;;;23.20;99.90;;;;;;5054732;28;20028;-57
2022/07/29 08:20:56;;;;;;;4.82;3.42;;;23.30;99.90;;;;;;5054458;28;20409;-57
2022/07/29 08:23:22;;;;;;;5.57;3.40;;;23.50;99.90;;;;;;5054622;28;20033;-57
2022/07/29 08:25:49;;;;;;;3.92;2.95;;;24.00;99.90;;;;;;5053662;28;20033;-56
2022/07/29 08:28:15;;;;;;;4.05;3.00;;;24.00;99.90;;;;;;5053922;28;20028;-56
2022/07/29 08:30:41;;;;;;;5.25;2.95;;;24.20;99.90;;;;;;5053897;28;20029;-56
2022/07/29 08:33:06;;;;;;;4.40;2.47;;;24.10;99.90;;;;;;5054099;28;20531;-57
2022/07/29 08:35:32;;;;;;;2.83;2.00;;;24.50;99.90;;;;;;5053723;28;20025;-56
2022/07/29 08:37:58;;;;;;;5.25;2.20;;;24.70;99.90;;;;;;5053653;28;20021;-56
2022/07/29 08:40:24;;;;;;;6.25;2.30;;;25.40;99.90;;;;;;5053069;28;20036;-56
2022/07/29 08:42:50;;;;;;;5.25;2.75;;;25.20;99.90;;;;;;5053595;28;20045;-57
2022/07/29 08:45:16;;;;;;;5.85;2.40;;;25.10;99.90;;;;;;5053578;28;20630;-57
2022/07/29 08:47:45;;;;;;;5.38;2.50;;;25.20;99.90;;;;;;5051053;28;20014;-56
2022/07/29 08:50:11;;;;;;;3.45;2.05;;;25.80;99.90;;;;;;5053555;28;20028;-56
2022/07/29 08:52:39;;;;;;;7.03;2.67;;;27.20;99.90;;;;;;5053606;28;20021;-56
2022/07/29 08:55:07;;;;;;;3.72;1.98;;;26.80;99.90;;;;;;5053212;28;20036;-55
2022/07/29 08:57:34;;;;;;;6.03;1.98;;;26.90;99.90;;;;;;5053739;28;20496;-57
2022/07/29 09:00:05;;;;;;;4.88;2.30;;;27.10;99.90;;;;;;5053924;28;20155;-57
2022/07/29 09:02:44;;;;;;;4.00;1.70;;;26.60;99.90;;;;;;5053582;28;20036;-57
2022/07/29 09:05:10;;;;;;;3.75;1.58;;;27.40;99.90;;;;;;5038944;28;20033;-57
2022/07/29 09:07:35;;;;;;;4.65;1.95;;;27.10;99.90;;;;;;5053605;28;20033;-57
2022/07/29 09:10:03;;;;;;;3.25;1.80;;;26.80;99.90;;;;;;5053240;28;20017;-57
2022/07/29 09:12:30;;;;;;;4.20;2.20;;;27.00;99.90;;;;;;5053521;28;20033;-57
2022/07/29 09:14:56;;;;;;;4.60;1.70;;;27.50;99.90;;;;;;5053669;28;20113;-57
2022/07/29 09:17:41;;;;;;;4.50;1.58;;;28.60;99.90;;;;;;5053485;28;20116;-57
2022/07/29 09:23:19;;;;;;;4.80;1.90;;;29.40;99.90;;;;;;5011006;28;20161;-56
2022/07/29 09:25:45;;;;;;;4.70;1.70;;;28.80;99.90;;;;;;5011098;28;20176;-57
2022/07/29 09:28:13;;;;;;;4.38;1.65;;;29.60;99.90;;;;;;5010843;28;20030;-57
2022/07/29 09:30:58;;;;;;;2.97;1.70;;;29.40;99.90;;;;;;4994159;28;20557;-57
2022/07/29 09:33:31;;;;;;;2.53;1.83;;;29.10;99.90;;;;;;5011033;28;20025;-56
2022/07/29 09:36:04;;;;;;;4.65;1.77;;;28.50;99.50;;;;;;5010734;28;20152;-56
2022/07/29 09:38:30;;;;;;;2.95;1.63;;;28.80;99.90;;;;;;5010167;28;20049;-57
2022/07/29 09:40:57;;;;;;;2.60;1.58;;;29.20;99.90;;;;;;5010502;28;20041;-56
2022/07/29 09:43:23;;;;;;;3.97;1.90;;;29.30;99.90;;;;;;5010601;28;20050;-57
2022/07/29 09:45:49;;;;;;;3.97;1.90;;;29.40;99.90;;;;;;5011174;28;20060;-57
2022/07/29 09:48:20;;;;;;;2.80;1.60;;;29.10;99.90;;;;;;5010479;28;20037;-56
2022/07/29 09:50:49;;;;;;;3.70;1.60;;;29.20;99.90;;;;;;5010057;28;20101;-56
2022/07/29 09:53:32;;;;;;;2.47;1.70;;;29.10;99.90;;;;;;5010251;28;20479;-56
2022/07/29 09:55:58;;;;;;;3.95;1.80;;;28.90;99.90;;;;;;5009811;28;20097;-57
2022/07/29 09:58:24;;;;;;;3.75;1.70;;;28.60;99.90;;;;;;5006768;28;20066;-57
2022/07/29 10:00:51;;;;;;;4.05;1.70;;;28.50;99.90;;;;;;5024950;28;20517;-57
2022/07/29 10:03:17;;;;;;;2.05;1.40;;;28.40;99.90;;;;;;5032669;28;20029;-57
2022/07/29 10:05:44;;;;;;;4.82;1.58;;;28.30;99.90;;;;;;5031680;28;20033;-56
2022/07/29 10:08:14;;;;;;;2.97;1.60;;;28.10;99.90;;;;;;5031475;28;20489;-57
2022/07/29 10:10:42;;;;;;;3.00;1.30;;;28.10;99.90;;;;;;5033010;28;20463;-57
2022/07/29 10:13:12;;;;;;;2.97;1.52;;;27.90;99.90;;;;;;5032144;28;20036;-57
2022/07/29 10:15:44;;;;;;;2.85;1.40;;;27.90;99.90;;;;;;5031364;28;20025;-56
2022/07/29 10:18:11;;;;;;;2.60;1.65;;;28.00;99.90;;;;;;5031517;28;20033;-57
2022/07/29 10:20:38;;;;;;;3.20;1.58;;;28.00;99.90;;;;;;5032453;28;20025;-57
2022/07/29 10:23:04;;;;;;;2.70;1.60;;;27.90;99.90;;;;;;5050917;28;20119;-57
2022/07/29 10:25:30;;;;;;;3.25;1.70;;;27.80;99.90;;;;;;5052149;28;20033;-56
2022/07/29 10:27:56;;;;;;;4.00;1.83;;;27.90;99.90;;;;;;5052688;28;20075;-56
2022/07/29 10:30:24;;;;;;;3.67;2.47;;;28.00;99.90;;;;;;5051977;28;20025;-56
2022/07/29 10:33:08;;;;;;;5.95;2.67;;;28.10;98.90;;;;;;5051849;28;20501;-56
2022/07/29 10:35:45;;;;;;;5.88;2.63;;;28.50;98.00;;;;;;5051937;28;20166;-56
2022/07/29 10:38:14;;;;;;;3.15;2.40;;;29.00;98.40;;;;;;5051879;28;20515;-56
2022/07/29 10:43:46;;;;;;;4.55;2.95;;;29.40;96.40;;;;;;5051824;28;20138;-57
2022/07/29 10:46:14;;;;;;;3.85;2.80;;;29.70;97.00;;;;;;5050611;28;20063;-57
2022/07/29 10:49:15;;;;;;;3.88;2.78;;;29.70;97.40;;;;;;5051889;28;20025;-56
2022/07/29 10:51:50;;;;;;;5.03;3.05;;;29.60;95.70;;;;;;5051856;28;20017;-57
2022/07/29 10:54:36;;;;;;;4.53;3.00;;;29.50;96.00;;;;;;5051161;28;20032;-57
2022/07/29 10:57:31;;;;;;;3.60;2.90;;;28.90;95.80;;;;;;5051832;28;20032;-57
2022/07/29 11:00:13;;;;;;;2.63;2.40;;;29.60;94.90;;;;;;5052108;28;20032;-56
2022/07/29 11:02:44;;;;;;;3.53;2.40;;;29.60;94.80;;;;;;5050734;28;20037;-57
2022/07/29 11:05:19;;;;;;;3.00;2.38;;;29.50;95.80;;;;;;5051233;28;20032;-56
2022/07/29 11:08:09;;;;;;;4.57;2.00;;;29.30;94.90;;;;;;5051730;28;20021;-56
2022/07/29 11:10:35;;;;;;;5.35;2.30;;;29.20;94.70;;;;;;5051934;28;20025;-56
2022/07/29 11:13:01;;;;;;;3.38;2.20;;;29.10;94.50;;;;;;5050495;28;20539;-57
2022/07/29 11:15:26;;;;;;;3.85;1.80;;;29.20;94.60;;;;;;5051570;28;20052;-56
2022/07/29 11:17:52;;;;;;;3.05;1.80;;;29.20;94.30;;;;;;5051546;28;20488;-57
2022/07/29 11:20:39;;;;;;;4.35;1.60;;;29.10;94.20;;;;;;5050927;28;20021;-56
2022/07/29 11:23:19;;;;;;;2.33;1.50;;;29.20;93.50;;;;;;5051922;28;20028;-57
2022/07/29 11:26:06;;;;;;;3.70;1.90;;;29.10;93.20;;;;;;5051544;28;20452;-57
2022/07/29 11:28:33;;;;;;;2.72;1.40;;;29.20;93.30;;;;;;5052355;28;20381;-57
2022/07/29 11:31:00;;;;;;;4.35;1.88;;;29.50;94.80;;;;;;5055534;28;20492;-57
2022/07/29 11:33:33;;;;;;;4.57;1.70;;;29.90;93.30;;;;;;5055215;28;20043;-55
2022/07/29 11:36:14;;;;;;;4.78;1.83;;;30.10;93.70;;;;;;5055989;28;20021;-57
2022/07/29 11:38:41;;;;;;;3.28;1.95;;;29.70;93.80;;;;;;5055323;28;20043;-57
2022/07/29 11:41:25;;;;;;;4.20;1.67;;;29.30;94.10;;;;;;5055208;28;20025;-57
2022/07/29 11:43:53;;;;;;;3.25;1.80;;;29.20;94.40;;;;;;5054973;28;20080;-57
2022/07/29 11:46:49;;;;;;;3.20;1.70;;;29.50;94.60;;;;;;5055648;28;20033;-57
2022/07/29 11:49:23;;;;;;;4.20;1.90;;;29.70;93.60;;;;;;5052993;28;20062;-57
2022/07/29 11:51:53;;;;;;;2.78;1.90;;;29.40;93.70;;;;;;5055180;28;20481;-57
2022/07/29 11:54:26;;;;;;;3.97;1.70;;;29.60;93.80;;;;;;5055130;28;20021;-57
2022/07/29 11:56:52;;;;;;;3.58;1.50;;;29.80;93.60;;;;;;5055110;28;20033;-57
2022/07/29 11:59:19;;;;;;;1.77;1.38;;;30.10;93.80;;;;;;5054907;28;20032;-57
2022/07/29 12:01:55;;;;;;;2.83;1.73;;;30.00;92.90;;;;;;5054873;28;20115;-61
2022/07/29 12:04:23;;;;;;;3.28;1.80;;;29.80;93.50;;;;;;5054858;28;20032;-57
2022/07/29 12:06:53;;;;;;;3.17;1.70;;;30.00;93.80;;;;;;5054878;28;20032;-57
2022/07/29 12:09:21;;;;;;;2.85;1.85;;;29.90;93.30;;;;;;5054919;28;20025;-57
2022/07/29 12:11:48;;;;;;;3.05;1.50;;;30.30;92.80;;;;;;5054711;28;20082;-57
2022/07/29 12:14:31;;;;;;;2.03;1.10;;;30.50;93.50;;;;;;5054736;28;20068;-57
2022/07/29 12:16:58;;;;;;;1.85;1.40;;;30.80;92.90;;;;;;5054475;28;20452;-56
2022/07/29 12:19:24;;;;;;;2.28;1.20;;;30.80;93.90;;;;;;5054776;28;20096;-57
2022/07/29 12:21:52;;;;;;;1.77;1.10;;;31.00;93.00;;;;;;5054731;28;20112;-56
2022/07/29 12:24:19;;;;;;;4.25;1.10;;;31.00;92.00;;;;;;5054999;28;20456;-57
2022/07/29 12:26:52;;;;;;;3.20;1.23;;;30.60;92.90;;;;;;5053365;28;20060;-56
2022/07/29 12:29:19;;;;;;;3.92;1.27;;;30.40;93.00;;;;;;5054444;28;20149;-56
2022/07/29 12:31:46;;;;;;;2.20;1.30;;;30.30;92.80;;;;;;5054231;28;20418;-57
2022/07/29 12:34:13;;;;;;;2.33;1.20;;;30.50;92.60;;;;;;5054511;28;20017;-57
2022/07/29 12:36:43;;;;;;;1.83;1.23;;;30.60;92.70;;;;;;5054578;28;20021;-56
2022/07/29 12:39:10;;;;;;;2.53;1.30;;;30.50;92.70;;;;;;5054599;28;20025;-56
2022/07/29 12:41:36;;;;;;;3.22;1.23;;;30.80;92.00;;;;;;5053050;28;20037;-56
2022/07/29 12:44:02;;;;;;;2.50;1.27;;;30.70;92.00;;;;;;5054056;28;20049;-56
2022/07/29 12:46:28;;;;;;;2.20;1.35;;;30.80;92.70;;;;;;5053996;28;20037;-56
2022/07/29 12:48:56;;;;;;;5.05;1.30;;;31.00;92.30;;;;;;5054269;28;20025;-56
2022/07/29 12:51:36;;;;;;;2.15;1.13;;;30.50;91.90;;;;;;5054207;28;20021;-57
2022/07/29 12:54:16;;;;;;;3.20;1.38;;;30.50;93.20;;;;;;5054520;28;20116;-57
2022/07/29 12:56:44;;;;;;;2.28;1.15;;;30.50;92.80;;;;;;5054045;28;20038;-57
2022/07/29 12:59:20;;;;;;;2.20;1.17;;;30.30;92.30;;;;;;5054159;28;20393;-57
2022/07/29 13:01:48;;;;;;;2.03;1.05;;;30.20;91.90;;;;;;5053721;28;20060;-56